sensor_id;sensor_type;location;lat;lon;timestamp;P1;durP1;ratioP1;P2;durP2;ratioP2
23232;SDS011;11785;49.500;8.288;2024-02-21T00:01:21;11.57;;;4.60;;
23232;SDS011;11785;49.500;8.288;2024-02-21T00:03:47;14.77;;;4.95;;
23232;SDS011;11785;49.500;8.288;2024-02-21T00:06:13;12.40;;;4.75;;
23232;SDS011;11785;49.500;8.288;2024-02-21T00:08:38;12.77;;;4.60;;
23232;SDS011;11785;49.500;8.288;2024-02-21T00:11:04;15.88;;;5.40;;
23232;SDS011;11785;49.500;8.288;2024-02-21T00:13:29;11.68;;;4.57;;
23232;SDS011;11785;49.500;8.288;2024-02-21T00:15:55;19.45;;;4.80;;
23232;SDS011;11785;49.500;8.288;2024-02-21T00:18:21;15.88;;;4.85;;
23232;SDS011;11785;49.500;8.288;2024-02-21T00:20:46;17.33;;;5.03;;
23232;SDS011;11785;49.500;8.288;2024-02-21T00:23:12;15.18;;;4.18;;
23232;SDS011;11785;49.500;8.288;2024-02-21T00:25:37;16.60;;;5.28;;
23232;SDS011;11785;49.500;8.288;2024-02-21T00:28:03;14.90;;;4.63;;
23232;SDS011;11785;49.500;8.288;2024-02-21T00:30:30;11.77;;;4.43;;
23232;SDS011;11785;49.500;8.288;2024-02-21T00:32:56;20.38;;;4.90;;
23232;SDS011;11785;49.500;8.288;2024-02-21T00:35:22;15.85;;;4.53;;
23232;SDS011;11785;49.500;8.288;2024-02-21T00:37:47;13.50;;;4.97;;
23232;SDS011;11785;49.500;8.288;2024-02-21T00:40:13;16.08;;;4.70;;
23232;SDS011;11785;49.500;8.288;2024-02-21T00:42:44;17.17;;;5.47;;
23232;SDS011;11785;49.500;8.288;2024-02-21T00:45:11;14.90;;;4.30;;
23232;SDS011;11785;49.500;8.288;2024-02-21T00:47:36;13.00;;;3.83;;
23232;SDS011;11785;49.500;8.288;2024-02-21T00:50:02;13.30;;;5.15;;
23232;SDS011;11785;49.500;8.288;2024-02-21T00:52:27;11.05;;;4.32;;
23232;SDS011;11785;49.500;8.288;2024-02-21T00:54:53;17.17;;;4.13;;
23232;SDS011;11785;49.500;8.288;2024-02-21T00:57:19;16.23;;;4.85;;
23232;SDS011;11785;49.500;8.288;2024-02-21T00:59:45;13.70;;;4.13;;
23232;SDS011;11785;49.500;8.288;2024-02-21T01:02:10;13.35;;;4.13;;
23232;SDS011;11785;49.500;8.288;2024-02-21T01:04:36;12.70;;;4.70;;
23232;SDS011;11785;49.500;8.288;2024-02-21T01:07:01;16.13;;;5.05;;
23232;SDS011;11785;49.500;8.288;2024-02-21T01:09:27;16.13;;;4.68;;
23232;SDS011;11785;49.500;8.288;2024-02-21T01:11:52;14.25;;;4.38;;
23232;SDS011;11785;49.500;8.288;2024-02-21T01:14:18;14.32;;;4.40;;
23232;SDS011;11785;49.500;8.288;2024-02-21T01:16:44;13.55;;;4.68;;
23232;SDS011;11785;49.500;8.288;2024-02-21T01:19:09;18.52;;;5.07;;
23232;SDS011;11785;49.500;8.288;2024-02-21T01:21:35;17.80;;;3.85;;
23232;SDS011;11785;49.500;8.288;2024-02-21T01:24:00;14.82;;;4.32;;
23232;SDS011;11785;49.500;8.288;2024-02-21T01:26:26;12.98;;;4.50;;
23232;SDS011;11785;49.500;8.288;2024-02-21T01:28:51;13.27;;;4.10;;
23232;SDS011;11785;49.500;8.288;2024-02-21T01:31:17;10.27;;;3.95;;
23232;SDS011;11785;49.500;8.288;2024-02-21T01:33:43;12.50;;;4.05;;
23232;SDS011;11785;49.500;8.288;2024-02-21T01:36:08;11.23;;;4.60;;
23232;SDS011;11785;49.500;8.288;2024-02-21T01:38:34;15.85;;;3.60;;
23232;SDS011;11785;49.500;8.288;2024-02-21T01:41:00;16.25;;;4.10;;
23232;SDS011;11785;49.500;8.288;2024-02-21T01:43:25;18.63;;;4.65;;
23232;SDS011;11785;49.500;8.288;2024-02-21T01:45:55;17.55;;;4.22;;
23232;SDS011;11785;49.500;8.288;2024-02-21T01:48:24;13.23;;;4.47;;
23232;SDS011;11785;49.500;8.288;2024-02-21T01:50:50;16.85;;;4.32;;
23232;SDS011;11785;49.500;8.288;2024-02-21T01:53:20;10.38;;;4.10;;
23232;SDS011;11785;49.500;8.288;2024-02-21T01:55:50;15.40;;;4.13;;
23232;SDS011;11785;49.500;8.288;2024-02-21T01:58:16;15.48;;;4.40;;
23232;SDS011;11785;49.500;8.288;2024-02-21T02:00:43;15.27;;;4.70;;
23232;SDS011;11785;49.500;8.288;2024-02-21T02:03:10;14.77;;;4.32;;
23232;SDS011;11785;49.500;8.288;2024-02-21T02:05:44;17.10;;;4.20;;
23232;SDS011;11785;49.500;8.288;2024-02-21T02:08:12;14.07;;;4.90;;
23232;SDS011;11785;49.500;8.288;2024-02-21T02:10:38;16.70;;;4.47;;
23232;SDS011;11785;49.500;8.288;2024-02-21T02:13:05;12.07;;;4.07;;
23232;SDS011;11785;49.500;8.288;2024-02-21T02:15:37;13.18;;;4.60;;
23232;SDS011;11785;49.500;8.288;2024-02-21T02:18:06;14.05;;;4.53;;
23232;SDS011;11785;49.500;8.288;2024-02-21T02:20:32;15.93;;;4.40;;
23232;SDS011;11785;49.500;8.288;2024-02-21T02:22:58;16.52;;;4.60;;
23232;SDS011;11785;49.500;8.288;2024-02-21T02:25:25;13.73;;;4.50;;
23232;SDS011;11785;49.500;8.288;2024-02-21T02:27:51;14.73;;;4.30;;
23232;SDS011;11785;49.500;8.288;2024-02-21T02:30:17;16.92;;;4.78;;
23232;SDS011;11785;49.500;8.288;2024-02-21T02:32:45;16.65;;;5.20;;
23232;SDS011;11785;49.500;8.288;2024-02-21T02:35:11;15.00;;;5.20;;
23232;SDS011;11785;49.500;8.288;2024-02-21T02:37:37;18.85;;;5.03;;
23232;SDS011;11785;49.500;8.288;2024-02-21T02:40:04;9.98;;;4.22;;
23232;SDS011;11785;49.500;8.288;2024-02-21T02:42:31;19.35;;;5.47;;
23232;SDS011;11785;49.500;8.288;2024-02-21T02:44:56;12.02;;;5.22;;
23232;SDS011;11785;49.500;8.288;2024-02-21T02:47:22;16.95;;;5.15;;
23232;SDS011;11785;49.500;8.288;2024-02-21T02:49:48;13.98;;;4.97;;
23232;SDS011;11785;49.500;8.288;2024-02-21T02:52:16;14.82;;;5.35;;
23232;SDS011;11785;49.500;8.288;2024-02-21T02:54:42;13.93;;;4.85;;
23232;SDS011;11785;49.500;8.288;2024-02-21T02:57:08;14.40;;;4.65;;
23232;SDS011;11785;49.500;8.288;2024-02-21T02:59:34;11.35;;;4.50;;
23232;SDS011;11785;49.500;8.288;2024-02-21T03:02:00;12.85;;;4.47;;
23232;SDS011;11785;49.500;8.288;2024-02-21T03:04:26;21.27;;;4.90;;
23232;SDS011;11785;49.500;8.288;2024-02-21T03:06:51;11.35;;;4.93;;
23232;SDS011;11785;49.500;8.288;2024-02-21T03:09:17;16.58;;;5.13;;
23232;SDS011;11785;49.500;8.288;2024-02-21T03:11:42;15.00;;;4.78;;
23232;SDS011;11785;49.500;8.288;2024-02-21T03:14:09;14.95;;;4.93;;
23232;SDS011;11785;49.500;8.288;2024-02-21T03:16:35;15.52;;;4.93;;
23232;SDS011;11785;49.500;8.288;2024-02-21T03:19:00;13.55;;;4.68;;
23232;SDS011;11785;49.500;8.288;2024-02-21T03:21:26;17.90;;;5.32;;
23232;SDS011;11785;49.500;8.288;2024-02-21T03:23:52;12.55;;;5.13;;
23232;SDS011;11785;49.500;8.288;2024-02-21T03:26:17;18.67;;;5.20;;
23232;SDS011;11785;49.500;8.288;2024-02-21T03:28:43;15.43;;;4.43;;
23232;SDS011;11785;49.500;8.288;2024-02-21T03:31:11;12.20;;;4.30;;
23232;SDS011;11785;49.500;8.288;2024-02-21T03:33:38;12.02;;;4.38;;
23232;SDS011;11785;49.500;8.288;2024-02-21T03:36:05;16.60;;;4.82;;
23232;SDS011;11785;49.500;8.288;2024-02-21T03:38:30;15.65;;;4.72;;
23232;SDS011;11785;49.500;8.288;2024-02-21T03:40:56;12.60;;;4.70;;
23232;SDS011;11785;49.500;8.288;2024-02-21T03:43:21;15.40;;;5.22;;
23232;SDS011;11785;49.500;8.288;2024-02-21T03:45:47;12.98;;;4.75;;
23232;SDS011;11785;49.500;8.288;2024-02-21T03:48:12;17.55;;;5.30;;
23232;SDS011;11785;49.500;8.288;2024-02-21T03:50:38;15.02;;;4.40;;
23232;SDS011;11785;49.500;8.288;2024-02-21T03:53:04;19.30;;;4.72;;
23232;SDS011;11785;49.500;8.288;2024-02-21T03:55:29;15.35;;;5.25;;
23232;SDS011;11785;49.500;8.288;2024-02-21T03:57:55;19.17;;;4.95;;
23232;SDS011;11785;49.500;8.288;2024-02-21T04:00:21;15.85;;;4.93;;
23232;SDS011;11785;49.500;8.288;2024-02-21T04:02:46;12.13;;;4.82;;
23232;SDS011;11785;49.500;8.288;2024-02-21T04:05:15;10.13;;;4.63;;
23232;SDS011;11785;49.500;8.288;2024-02-21T04:07:41;15.10;;;5.05;;
23232;SDS011;11785;49.500;8.288;2024-02-21T04:10:07;17.45;;;4.70;;
23232;SDS011;11785;49.500;8.288;2024-02-21T04:12:33;17.05;;;4.90;;
23232;SDS011;11785;49.500;8.288;2024-02-21T04:14:59;17.23;;;4.85;;
23232;SDS011;11785;49.500;8.288;2024-02-21T04:17:24;18.75;;;4.85;;
23232;SDS011;11785;49.500;8.288;2024-02-21T04:19:50;11.30;;;4.55;;
23232;SDS011;11785;49.500;8.288;2024-02-21T04:22:17;16.65;;;5.25;;
23232;SDS011;11785;49.500;8.288;2024-02-21T04:24:42;12.63;;;4.97;;
23232;SDS011;11785;49.500;8.288;2024-02-21T04:27:08;14.75;;;4.95;;
23232;SDS011;11785;49.500;8.288;2024-02-21T04:29:33;13.23;;;4.53;;
23232;SDS011;11785;49.500;8.288;2024-02-21T04:31:59;14.48;;;5.65;;
23232;SDS011;11785;49.500;8.288;2024-02-21T04:34:27;17.35;;;5.10;;
23232;SDS011;11785;49.500;8.288;2024-02-21T04:36:52;20.33;;;5.50;;
23232;SDS011;11785;49.500;8.288;2024-02-21T04:39:18;19.45;;;5.15;;
23232;SDS011;11785;49.500;8.288;2024-02-21T04:41:43;11.57;;;4.85;;
23232;SDS011;11785;49.500;8.288;2024-02-21T04:44:09;18.55;;;5.22;;
23232;SDS011;11785;49.500;8.288;2024-02-21T04:46:34;16.00;;;5.20;;
23232;SDS011;11785;49.500;8.288;2024-02-21T04:49:00;17.77;;;5.10;;
23232;SDS011;11785;49.500;8.288;2024-02-21T04:51:25;14.30;;;5.25;;
23232;SDS011;11785;49.500;8.288;2024-02-21T04:53:51;19.83;;;5.55;;
23232;SDS011;11785;49.500;8.288;2024-02-21T04:56:17;13.93;;;5.35;;
23232;SDS011;11785;49.500;8.288;2024-02-21T04:58:42;19.65;;;5.85;;
23232;SDS011;11785;49.500;8.288;2024-02-21T05:01:07;14.90;;;4.15;;
23232;SDS011;11785;49.500;8.288;2024-02-21T05:03:33;16.38;;;4.22;;
23232;SDS011;11785;49.500;8.288;2024-02-21T05:05:59;13.98;;;4.72;;
23232;SDS011;11785;49.500;8.288;2024-02-21T05:08:25;17.65;;;4.43;;
23232;SDS011;11785;49.500;8.288;2024-02-21T05:10:51;12.20;;;4.80;;
23232;SDS011;11785;49.500;8.288;2024-02-21T05:13:16;11.15;;;5.32;;
23232;SDS011;11785;49.500;8.288;2024-02-21T05:15:42;13.73;;;4.45;;
23232;SDS011;11785;49.500;8.288;2024-02-21T05:18:07;16.35;;;4.78;;
23232;SDS011;11785;49.500;8.288;2024-02-21T05:20:33;9.38;;;4.32;;
23232;SDS011;11785;49.500;8.288;2024-02-21T05:22:59;19.10;;;5.03;;
23232;SDS011;11785;49.500;8.288;2024-02-21T05:25:24;10.05;;;4.28;;
23232;SDS011;11785;49.500;8.288;2024-02-21T05:27:50;11.90;;;4.65;;
23232;SDS011;11785;49.500;8.288;2024-02-21T05:30:18;8.27;;;4.03;;
23232;SDS011;11785;49.500;8.288;2024-02-21T05:32:44;13.90;;;5.32;;
23232;SDS011;11785;49.500;8.288;2024-02-21T05:35:09;17.85;;;4.47;;
23232;SDS011;11785;49.500;8.288;2024-02-21T05:37:35;15.25;;;4.97;;
23232;SDS011;11785;49.500;8.288;2024-02-21T05:40:00;14.57;;;4.95;;
23232;SDS011;11785;49.500;8.288;2024-02-21T05:42:26;18.88;;;5.22;;
23232;SDS011;11785;49.500;8.288;2024-02-21T05:44:52;17.70;;;4.93;;
23232;SDS011;11785;49.500;8.288;2024-02-21T05:47:17;19.23;;;5.07;;
23232;SDS011;11785;49.500;8.288;2024-02-21T05:49:45;17.08;;;5.13;;
23232;SDS011;11785;49.500;8.288;2024-02-21T05:52:10;12.43;;;5.25;;
23232;SDS011;11785;49.500;8.288;2024-02-21T05:54:39;12.27;;;4.97;;
23232;SDS011;11785;49.500;8.288;2024-02-21T05:57:05;12.20;;;4.97;;
23232;SDS011;11785;49.500;8.288;2024-02-21T05:59:31;14.32;;;4.78;;
23232;SDS011;11785;49.500;8.288;2024-02-21T06:01:56;13.30;;;5.47;;
23232;SDS011;11785;49.500;8.288;2024-02-21T06:04:22;21.25;;;5.30;;
23232;SDS011;11785;49.500;8.288;2024-02-21T06:06:48;16.20;;;5.40;;
23232;SDS011;11785;49.500;8.288;2024-02-21T06:09:14;15.57;;;5.10;;
23232;SDS011;11785;49.500;8.288;2024-02-21T06:11:39;15.90;;;5.07;;
23232;SDS011;11785;49.500;8.288;2024-02-21T06:14:05;18.05;;;5.70;;
23232;SDS011;11785;49.500;8.288;2024-02-21T06:16:30;14.23;;;5.20;;
23232;SDS011;11785;49.500;8.288;2024-02-21T06:18:56;25.25;;;5.50;;
23232;SDS011;11785;49.500;8.288;2024-02-21T06:21:21;15.52;;;5.65;;
23232;SDS011;11785;49.500;8.288;2024-02-21T06:23:47;18.38;;;6.50;;
23232;SDS011;11785;49.500;8.288;2024-02-21T06:26:12;15.80;;;6.05;;
23232;SDS011;11785;49.500;8.288;2024-02-21T06:28:38;14.02;;;5.00;;
23232;SDS011;11785;49.500;8.288;2024-02-21T06:31:03;17.67;;;5.90;;
23232;SDS011;11785;49.500;8.288;2024-02-21T06:33:29;16.00;;;5.72;;
23232;SDS011;11785;49.500;8.288;2024-02-21T06:35:54;15.43;;;5.90;;
23232;SDS011;11785;49.500;8.288;2024-02-21T06:38:20;17.40;;;5.75;;
23232;SDS011;11785;49.500;8.288;2024-02-21T06:40:46;17.63;;;5.47;;
23232;SDS011;11785;49.500;8.288;2024-02-21T06:43:16;13.90;;;5.47;;
23232;SDS011;11785;49.500;8.288;2024-02-21T06:45:42;16.35;;;5.72;;
23232;SDS011;11785;49.500;8.288;2024-02-21T06:48:12;19.13;;;6.13;;
23232;SDS011;11785;49.500;8.288;2024-02-21T06:50:38;20.88;;;6.25;;
23232;SDS011;11785;49.500;8.288;2024-02-21T06:53:03;17.80;;;5.35;;
23232;SDS011;11785;49.500;8.288;2024-02-21T06:55:29;14.90;;;5.55;;
23232;SDS011;11785;49.500;8.288;2024-02-21T06:57:54;17.30;;;5.55;;
23232;SDS011;11785;49.500;8.288;2024-02-21T07:00:20;18.17;;;5.93;;
23232;SDS011;11785;49.500;8.288;2024-02-21T07:02:45;21.95;;;6.38;;
23232;SDS011;11785;49.500;8.288;2024-02-21T07:05:12;13.35;;;6.00;;
23232;SDS011;11785;49.500;8.288;2024-02-21T07:07:38;15.25;;;6.05;;
23232;SDS011;11785;49.500;8.288;2024-02-21T07:10:05;18.17;;;6.97;;
23232;SDS011;11785;49.500;8.288;2024-02-21T07:12:31;14.35;;;5.78;;
23232;SDS011;11785;49.500;8.288;2024-02-21T07:14:56;12.70;;;5.93;;
23232;SDS011;11785;49.500;8.288;2024-02-21T07:17:22;14.77;;;5.55;;
23232;SDS011;11785;49.500;8.288;2024-02-21T07:19:47;19.73;;;6.32;;
23232;SDS011;11785;49.500;8.288;2024-02-21T07:22:13;16.73;;;5.53;;
23232;SDS011;11785;49.500;8.288;2024-02-21T07:24:38;15.73;;;5.78;;
23232;SDS011;11785;49.500;8.288;2024-02-21T07:27:04;12.20;;;5.60;;
23232;SDS011;11785;49.500;8.288;2024-02-21T07:29:30;16.33;;;5.90;;
23232;SDS011;11785;49.500;8.288;2024-02-21T07:31:55;19.25;;;6.07;;
23232;SDS011;11785;49.500;8.288;2024-02-21T07:34:21;20.50;;;6.68;;
23232;SDS011;11785;49.500;8.288;2024-02-21T07:36:47;16.17;;;5.13;;
23232;SDS011;11785;49.500;8.288;2024-02-21T07:39:12;15.85;;;5.22;;
23232;SDS011;11785;49.500;8.288;2024-02-21T07:41:38;11.95;;;5.15;;
23232;SDS011;11785;49.500;8.288;2024-02-21T07:44:04;12.75;;;5.18;;
23232;SDS011;11785;49.500;8.288;2024-02-21T07:46:30;15.55;;;6.13;;
23232;SDS011;11785;49.500;8.288;2024-02-21T07:48:55;15.27;;;5.97;;
23232;SDS011;11785;49.500;8.288;2024-02-21T07:51:21;19.83;;;5.97;;
23232;SDS011;11785;49.500;8.288;2024-02-21T07:53:46;13.68;;;5.60;;
23232;SDS011;11785;49.500;8.288;2024-02-21T07:56:13;14.27;;;5.63;;
23232;SDS011;11785;49.500;8.288;2024-02-21T07:58:40;11.98;;;5.68;;
23232;SDS011;11785;49.500;8.288;2024-02-21T08:01:06;21.23;;;6.05;;
23232;SDS011;11785;49.500;8.288;2024-02-21T08:03:32;17.02;;;5.70;;
23232;SDS011;11785;49.500;8.288;2024-02-21T08:05:57;16.50;;;5.60;;
23232;SDS011;11785;49.500;8.288;2024-02-21T08:08:23;13.98;;;5.40;;
23232;SDS011;11785;49.500;8.288;2024-02-21T08:10:49;16.67;;;5.78;;
23232;SDS011;11785;49.500;8.288;2024-02-21T08:13:15;20.95;;;5.85;;
23232;SDS011;11785;49.500;8.288;2024-02-21T08:15:41;18.13;;;7.03;;
23232;SDS011;11785;49.500;8.288;2024-02-21T08:18:07;15.88;;;5.53;;
23232;SDS011;11785;49.500;8.288;2024-02-21T08:20:33;15.93;;;5.30;;
23232;SDS011;11785;49.500;8.288;2024-02-21T08:22:58;15.80;;;6.75;;
23232;SDS011;11785;49.500;8.288;2024-02-21T08:25:24;15.95;;;6.05;;
23232;SDS011;11785;49.500;8.288;2024-02-21T08:27:49;16.35;;;5.65;;
23232;SDS011;11785;49.500;8.288;2024-02-21T08:30:16;19.35;;;5.90;;
23232;SDS011;11785;49.500;8.288;2024-02-21T08:32:42;14.20;;;5.20;;
23232;SDS011;11785;49.500;8.288;2024-02-21T08:35:08;18.70;;;6.13;;
23232;SDS011;11785;49.500;8.288;2024-02-21T08:37:33;16.05;;;5.68;;
23232;SDS011;11785;49.500;8.288;2024-02-21T08:39:59;11.43;;;5.03;;
23232;SDS011;11785;49.500;8.288;2024-02-21T08:42:29;18.42;;;5.70;;
23232;SDS011;11785;49.500;8.288;2024-02-21T08:44:55;19.13;;;5.65;;
23232;SDS011;11785;49.500;8.288;2024-02-21T08:47:20;14.52;;;5.05;;
23232;SDS011;11785;49.500;8.288;2024-02-21T08:49:46;17.85;;;5.82;;
23232;SDS011;11785;49.500;8.288;2024-02-21T08:52:12;12.90;;;4.82;;
23232;SDS011;11785;49.500;8.288;2024-02-21T08:54:38;15.73;;;4.57;;
23232;SDS011;11785;49.500;8.288;2024-02-21T08:57:03;16.45;;;5.18;;
23232;SDS011;11785;49.500;8.288;2024-02-21T08:59:29;19.90;;;5.72;;
23232;SDS011;11785;49.500;8.288;2024-02-21T09:01:55;15.73;;;5.03;;
23232;SDS011;11785;49.500;8.288;2024-02-21T09:04:20;12.40;;;4.68;;
23232;SDS011;11785;49.500;8.288;2024-02-21T09:06:46;15.30;;;4.25;;
23232;SDS011;11785;49.500;8.288;2024-02-21T09:09:11;14.73;;;3.88;;
23232;SDS011;11785;49.500;8.288;2024-02-21T09:11:37;15.02;;;4.68;;
23232;SDS011;11785;49.500;8.288;2024-02-21T09:14:03;8.70;;;3.88;;
23232;SDS011;11785;49.500;8.288;2024-02-21T09:16:30;13.55;;;4.72;;
23232;SDS011;11785;49.500;8.288;2024-02-21T09:18:58;10.07;;;4.38;;
23232;SDS011;11785;49.500;8.288;2024-02-21T09:21:24;12.75;;;4.32;;
23232;SDS011;11785;49.500;8.288;2024-02-21T09:23:50;12.93;;;4.43;;
23232;SDS011;11785;49.500;8.288;2024-02-21T09:26:15;18.70;;;5.18;;
23232;SDS011;11785;49.500;8.288;2024-02-21T09:28:42;11.82;;;4.30;;
23232;SDS011;11785;49.500;8.288;2024-02-21T09:31:09;11.57;;;4.80;;
23232;SDS011;11785;49.500;8.288;2024-02-21T09:33:34;15.38;;;5.05;;
23232;SDS011;11785;49.500;8.288;2024-02-21T09:36:00;15.63;;;4.10;;
23232;SDS011;11785;49.500;8.288;2024-02-21T09:38:26;12.40;;;4.53;;
23232;SDS011;11785;49.500;8.288;2024-02-21T09:41:00;19.08;;;4.60;;
23232;SDS011;11785;49.500;8.288;2024-02-21T09:43:36;13.70;;;4.78;;
23232;SDS011;11785;49.500;8.288;2024-02-21T09:46:05;14.73;;;3.72;;
23232;SDS011;11785;49.500;8.288;2024-02-21T09:51:11;12.50;;;3.78;;
23232;SDS011;11785;49.500;8.288;2024-02-21T09:53:39;10.98;;;3.80;;
23232;SDS011;11785;49.500;8.288;2024-02-21T09:56:10;16.05;;;4.43;;
23232;SDS011;11785;49.500;8.288;2024-02-21T09:58:36;9.95;;;3.83;;
23232;SDS011;11785;49.500;8.288;2024-02-21T10:01:03;15.52;;;3.95;;
23232;SDS011;11785;49.500;8.288;2024-02-21T10:03:32;14.07;;;4.00;;
23232;SDS011;11785;49.500;8.288;2024-02-21T10:06:00;10.88;;;4.32;;
23232;SDS011;11785;49.500;8.288;2024-02-21T10:08:26;13.10;;;3.88;;
23232;SDS011;11785;49.500;8.288;2024-02-21T10:10:52;13.60;;;4.53;;
23232;SDS011;11785;49.500;8.288;2024-02-21T10:13:27;13.10;;;4.80;;
23232;SDS011;11785;49.500;8.288;2024-02-21T10:16:03;11.05;;;4.45;;
23232;SDS011;11785;49.500;8.288;2024-02-21T10:18:30;16.13;;;5.03;;
23232;SDS011;11785;49.500;8.288;2024-02-21T10:21:14;13.18;;;4.47;;
23232;SDS011;11785;49.500;8.288;2024-02-21T10:23:46;11.98;;;4.55;;
23232;SDS011;11785;49.500;8.288;2024-02-21T10:26:16;10.70;;;3.83;;
23232;SDS011;11785;49.500;8.288;2024-02-21T10:28:42;12.68;;;4.20;;
23232;SDS011;11785;49.500;8.288;2024-02-21T10:31:10;14.82;;;4.80;;
23232;SDS011;11785;49.500;8.288;2024-02-21T10:33:36;9.60;;;4.18;;
23232;SDS011;11785;49.500;8.288;2024-02-21T10:36:09;11.35;;;3.83;;
23232;SDS011;11785;49.500;8.288;2024-02-21T10:38:39;16.35;;;4.47;;
23232;SDS011;11785;49.500;8.288;2024-02-21T10:41:07;10.15;;;3.78;;
23232;SDS011;11785;49.500;8.288;2024-02-21T10:43:39;12.25;;;4.07;;
23232;SDS011;11785;49.500;8.288;2024-02-21T10:46:06;13.77;;;4.15;;
23232;SDS011;11785;49.500;8.288;2024-02-21T10:49:20;10.80;;;4.35;;
23232;SDS011;11785;49.500;8.288;2024-02-21T10:51:43;15.02;;;4.13;;
23232;SDS011;11785;49.500;8.288;2024-02-21T10:57:06;11.95;;;4.45;;
23232;SDS011;11785;49.500;8.288;2024-02-21T10:59:33;13.18;;;4.47;;
23232;SDS011;11785;49.500;8.288;2024-02-21T11:02:02;11.80;;;4.70;;
23232;SDS011;11785;49.500;8.288;2024-02-21T11:04:27;11.93;;;4.05;;
23232;SDS011;11785;49.500;8.288;2024-02-21T11:06:55;12.93;;;3.72;;
23232;SDS011;11785;49.500;8.288;2024-02-21T11:09:29;19.77;;;4.10;;
23232;SDS011;11785;49.500;8.288;2024-02-21T11:11:57;13.50;;;4.63;;
23232;SDS011;11785;49.500;8.288;2024-02-21T11:14:25;14.45;;;4.32;;
23232;SDS011;11785;49.500;8.288;2024-02-21T11:16:52;11.57;;;3.58;;
23232;SDS011;11785;49.500;8.288;2024-02-21T11:19:21;13.52;;;4.10;;
23232;SDS011;11785;49.500;8.288;2024-02-21T11:21:49;13.35;;;4.15;;
23232;SDS011;11785;49.500;8.288;2024-02-21T11:24:31;11.85;;;4.35;;
23232;SDS011;11785;49.500;8.288;2024-02-21T11:27:18;10.32;;;4.03;;
23232;SDS011;11785;49.500;8.288;2024-02-21T11:29:57;10.85;;;4.00;;
23232;SDS011;11785;49.500;8.288;2024-02-21T11:32:24;8.50;;;3.35;;
23232;SDS011;11785;49.500;8.288;2024-02-21T11:34:54;10.23;;;3.28;;
23232;SDS011;11785;49.500;8.288;2024-02-21T11:37:31;10.18;;;3.72;;
23232;SDS011;11785;49.500;8.288;2024-02-21T11:40:03;11.85;;;3.40;;
23232;SDS011;11785;49.500;8.288;2024-02-21T11:42:31;9.05;;;3.60;;
23232;SDS011;11785;49.500;8.288;2024-02-21T11:44:57;13.18;;;3.45;;
23232;SDS011;11785;49.500;8.288;2024-02-21T11:47:24;12.75;;;3.42;;
23232;SDS011;11785;49.500;8.288;2024-02-21T11:49:51;9.65;;;3.00;;
23232;SDS011;11785;49.500;8.288;2024-02-21T11:52:22;9.98;;;2.97;;
23232;SDS011;11785;49.500;8.288;2024-02-21T11:54:52;9.65;;;3.10;;
23232;SDS011;11785;49.500;8.288;2024-02-21T11:57:20;9.77;;;3.00;;
23232;SDS011;11785;49.500;8.288;2024-02-21T11:59:46;11.45;;;3.40;;
23232;SDS011;11785;49.500;8.288;2024-02-21T12:02:12;12.75;;;3.13;;
23232;SDS011;11785;49.500;8.288;2024-02-21T12:04:38;11.20;;;3.55;;
23232;SDS011;11785;49.500;8.288;2024-02-21T12:07:04;10.60;;;4.38;;
23232;SDS011;11785;49.500;8.288;2024-02-21T12:09:30;11.32;;;3.65;;
23232;SDS011;11785;49.500;8.288;2024-02-21T12:12:00;8.70;;;2.97;;
23232;SDS011;11785;49.500;8.288;2024-02-21T12:14:28;10.00;;;3.35;;
23232;SDS011;11785;49.500;8.288;2024-02-21T12:16:55;11.77;;;3.38;;
23232;SDS011;11785;49.500;8.288;2024-02-21T12:19:21;13.55;;;3.35;;
23232;SDS011;11785;49.500;8.288;2024-02-21T12:21:47;11.90;;;3.47;;
23232;SDS011;11785;49.500;8.288;2024-02-21T12:26:40;10.50;;;3.35;;
23232;SDS011;11785;49.500;8.288;2024-02-21T12:29:07;9.45;;;3.08;;
23232;SDS011;11785;49.500;8.288;2024-02-21T12:31:38;10.50;;;3.83;;
23232;SDS011;11785;49.500;8.288;2024-02-21T12:34:04;8.23;;;3.55;;
23232;SDS011;11785;49.500;8.288;2024-02-21T12:36:33;10.00;;;3.40;;
23232;SDS011;11785;49.500;8.288;2024-02-21T12:39:00;12.05;;;4.22;;
23232;SDS011;11785;49.500;8.288;2024-02-21T12:41:28;7.10;;;3.17;;
23232;SDS011;11785;49.500;8.288;2024-02-21T12:43:55;6.65;;;2.60;;
23232;SDS011;11785;49.500;8.288;2024-02-21T12:46:21;6.30;;;2.60;;
23232;SDS011;11785;49.500;8.288;2024-02-21T12:48:47;8.45;;;3.60;;
23232;SDS011;11785;49.500;8.288;2024-02-21T12:51:13;7.70;;;2.92;;
23232;SDS011;11785;49.500;8.288;2024-02-21T12:53:38;8.15;;;2.65;;
23232;SDS011;11785;49.500;8.288;2024-02-21T12:56:04;8.00;;;3.80;;
23232;SDS011;11785;49.500;8.288;2024-02-21T12:58:32;9.25;;;3.25;;
23232;SDS011;11785;49.500;8.288;2024-02-21T13:00:58;8.77;;;2.80;;
23232;SDS011;11785;49.500;8.288;2024-02-21T13:03:23;11.18;;;3.05;;
23232;SDS011;11785;49.500;8.288;2024-02-21T13:05:49;12.77;;;3.75;;
23232;SDS011;11785;49.500;8.288;2024-02-21T13:08:14;10.63;;;2.90;;
23232;SDS011;11785;49.500;8.288;2024-02-21T13:10:40;8.77;;;2.85;;
23232;SDS011;11785;49.500;8.288;2024-02-21T13:13:05;10.02;;;3.25;;
23232;SDS011;11785;49.500;8.288;2024-02-21T13:15:31;8.60;;;2.95;;
23232;SDS011;11785;49.500;8.288;2024-02-21T13:17:57;6.75;;;3.15;;
23232;SDS011;11785;49.500;8.288;2024-02-21T13:20:23;8.82;;;2.80;;
23232;SDS011;11785;49.500;8.288;2024-02-21T13:22:50;14.73;;;3.15;;
23232;SDS011;11785;49.500;8.288;2024-02-21T13:25:15;9.90;;;2.80;;
23232;SDS011;11785;49.500;8.288;2024-02-21T13:27:43;6.00;;;2.50;;
23232;SDS011;11785;49.500;8.288;2024-02-21T13:30:09;9.95;;;3.13;;
23232;SDS011;11785;49.500;8.288;2024-02-21T13:32:35;6.60;;;2.40;;
23232;SDS011;11785;49.500;8.288;2024-02-21T13:35:02;11.90;;;3.40;;
23232;SDS011;11785;49.500;8.288;2024-02-21T13:37:28;8.73;;;2.75;;
23232;SDS011;11785;49.500;8.288;2024-02-21T13:39:54;7.47;;;2.92;;
23232;SDS011;11785;49.500;8.288;2024-02-21T13:42:19;10.55;;;3.05;;
23232;SDS011;11785;49.500;8.288;2024-02-21T13:44:45;8.95;;;2.95;;
23232;SDS011;11785;49.500;8.288;2024-02-21T13:47:14;10.88;;;2.70;;
23232;SDS011;11785;49.500;8.288;2024-02-21T13:49:40;10.60;;;2.72;;
23232;SDS011;11785;49.500;8.288;2024-02-21T13:52:06;10.13;;;3.28;;
23232;SDS011;11785;49.500;8.288;2024-02-21T13:54:31;7.22;;;2.50;;
23232;SDS011;11785;49.500;8.288;2024-02-21T13:56:57;9.88;;;2.90;;
23232;SDS011;11785;49.500;8.288;2024-02-21T13:59:23;7.93;;;2.97;;
23232;SDS011;11785;49.500;8.288;2024-02-21T14:01:48;9.65;;;3.22;;
23232;SDS011;11785;49.500;8.288;2024-02-21T14:04:14;13.30;;;3.00;;
23232;SDS011;11785;49.500;8.288;2024-02-21T14:06:39;12.77;;;3.20;;
23232;SDS011;11785;49.500;8.288;2024-02-21T14:09:11;8.32;;;2.80;;
23232;SDS011;11785;49.500;8.288;2024-02-21T14:11:37;10.98;;;3.22;;
23232;SDS011;11785;49.500;8.288;2024-02-21T14:14:04;8.52;;;2.80;;
23232;SDS011;11785;49.500;8.288;2024-02-21T14:16:30;8.23;;;2.80;;
23232;SDS011;11785;49.500;8.288;2024-02-21T14:18:56;15.05;;;3.10;;
23232;SDS011;11785;49.500;8.288;2024-02-21T14:21:22;8.57;;;2.63;;
23232;SDS011;11785;49.500;8.288;2024-02-21T14:23:48;11.32;;;3.08;;
23232;SDS011;11785;49.500;8.288;2024-02-21T14:26:13;14.82;;;4.13;;
23232;SDS011;11785;49.500;8.288;2024-02-21T14:28:42;10.50;;;3.15;;
23232;SDS011;11785;49.500;8.288;2024-02-21T14:31:07;6.03;;;3.08;;
23232;SDS011;11785;49.500;8.288;2024-02-21T14:33:36;11.75;;;3.53;;
23232;SDS011;11785;49.500;8.288;2024-02-21T14:36:01;8.95;;;2.58;;
23232;SDS011;11785;49.500;8.288;2024-02-21T14:38:30;9.35;;;2.95;;
23232;SDS011;11785;49.500;8.288;2024-02-21T14:40:56;9.23;;;3.00;;